createdAt,value
2022-08-26T00:00:16.276Z,25.94
2022-08-26T00:01:19.129Z,26.01
2022-08-26T00:02:30.806Z,25.75
2022-08-26T00:03:32.585Z,26.03
2022-08-26T00:04:34.568Z,26.07
2022-08-26T00:05:36.346Z,26.08
2022-08-26T00:06:42.659Z,25.98
2022-08-26T00:07:48.154Z,26.09
2022-08-26T00:08:50.484Z,26.09
2022-08-26T00:09:54.522Z,26.07
2022-08-26T00:10:57.190Z,26.03
2022-08-26T00:12:01.715Z,26.07
2022-08-26T00:13:04.608Z,26.07
2022-08-26T00:14:06.762Z,26.08
2022-08-26T00:15:11.839Z,26.07
2022-08-26T00:16:14.398Z,26.05
2022-08-26T00:17:16.280Z,25.99
2022-08-26T00:18:22.250Z,26.04
2022-08-26T00:19:24.391Z,25.95
2022-08-26T00:20:29.255Z,25.99
2022-08-26T00:21:31.042Z,25.98
2022-08-26T00:22:33.044Z,25.98
2022-08-26T00:23:35.157Z,25.96
2022-08-26T00:24:36.908Z,25.99
2022-08-26T00:25:42.494Z,26.00
2022-08-26T00:26:44.764Z,26.00
2022-08-26T00:27:47.962Z,26.01
2022-08-26T00:28:50.188Z,26.02
2022-08-26T00:29:51.952Z,26.01
2022-08-26T00:30:55.279Z,25.95
2022-08-26T00:31:57.715Z,25.95
2022-08-26T00:32:59.515Z,25.99
2022-08-26T00:34:01.222Z,26.01
2022-08-26T00:35:03.800Z,25.98
2022-08-26T00:36:07.592Z,25.74
2022-08-26T00:37:13.407Z,25.96
2022-08-26T00:38:17.559Z,26.03
2022-08-26T00:39:20.366Z,26.00
2022-08-26T00:40:31.119Z,26.04
2022-08-26T00:41:34.282Z,26.00
2022-08-26T00:42:36.223Z,26.04
2022-08-26T00:43:47.239Z,26.02
2022-08-26T00:44:49.918Z,26.02
2022-08-26T00:46:07.473Z,26.04
2022-08-26T00:47:21.838Z,26.02
2022-08-26T00:48:27.978Z,25.99
2022-08-26T00:49:40.842Z,25.86
2022-08-26T00:50:53.417Z,25.95
2022-08-26T00:51:57.056Z,25.93
2022-08-26T00:53:01.764Z,25.96
2022-08-26T00:54:08.024Z,25.96
2022-08-26T00:55:24.555Z,25.95
2022-08-26T00:56:42.238Z,25.92
2022-08-26T00:57:45.142Z,25.68
2022-08-26T00:58:48.192Z,25.91
2022-08-26T00:59:55.315Z,25.82
2022-08-26T01:00:57.148Z,25.91
2022-08-26T01:01:59.168Z,25.85
2022-08-26T01:03:02.697Z,25.82
2022-08-26T01:04:08.153Z,25.88
2022-08-26T01:05:11.828Z,25.75
2022-08-26T01:06:14.555Z,25.86
2022-08-26T01:07:16.512Z,25.84
2022-08-26T01:08:18.391Z,25.83
2022-08-26T01:09:22.295Z,25.83
2022-08-26T01:10:31.366Z,25.80
2022-08-26T01:11:33.431Z,25.81
2022-08-26T01:12:42.612Z,25.79
2022-08-26T01:13:44.621Z,25.78
2022-08-26T01:14:47.849Z,25.81
2022-08-26T01:15:56.960Z,25.76
2022-08-26T01:16:59.402Z,25.83
2022-08-26T01:18:05.498Z,25.85
2022-08-26T01:19:18.949Z,25.73
2022-08-26T01:21:00.014Z,25.78
2022-08-26T01:22:21.007Z,25.77
2022-08-26T01:23:24.140Z,25.75
2022-08-26T01:24:29.251Z,25.64
2022-08-26T01:25:35.078Z,25.73
2022-08-26T01:26:41.637Z,25.73
2022-08-26T01:27:43.991Z,25.71
2022-08-26T01:28:51.422Z,25.62
2022-08-26T01:29:53.828Z,25.70
2022-08-26T01:30:57.784Z,25.67
2022-08-26T01:31:59.737Z,25.68
2022-08-26T01:33:05.045Z,25.63
2022-08-26T01:34:16.788Z,25.69
2022-08-26T01:35:20.452Z,25.69
2022-08-26T01:36:23.247Z,25.66
2022-08-26T01:37:29.660Z,25.69
2022-08-26T01:38:31.673Z,25.62
2022-08-26T01:39:35.862Z,25.69
2022-08-26T01:40:40.088Z,25.69
2022-08-26T01:41:44.161Z,25.69
2022-08-26T01:42:46.907Z,25.60
2022-08-26T01:43:53.430Z,25.70
2022-08-26T01:44:59.745Z,25.66
2022-08-26T01:46:02.664Z,25.67
2022-08-26T01:47:06.439Z,25.56
2022-08-26T01:48:13.816Z,25.65
2022-08-26T01:49:16.686Z,25.63
2022-08-26T01:50:27.841Z,25.48
2022-08-26T01:51:37.338Z,25.59
2022-08-26T01:52:43.314Z,25.54
2022-08-26T01:53:46.080Z,25.58
2022-08-26T01:54:50.462Z,25.55
2022-08-26T01:55:57.590Z,25.49
2022-08-26T01:57:01.412Z,25.52
2022-08-26T01:58:08.202Z,25.52
2022-08-26T01:59:15.081Z,25.57
2022-08-26T02:00:16.901Z,25.60
2022-08-26T02:01:20.142Z,25.59
2022-08-26T02:02:22.519Z,25.57
2022-08-26T02:03:27.144Z,25.60
2022-08-26T02:04:40.563Z,25.60
2022-08-26T02:05:51.548Z,25.53
2022-08-26T02:06:54.218Z,25.61
2022-08-26T02:07:55.937Z,25.54
2022-08-26T02:09:02.197Z,25.57
2022-08-26T02:10:04.664Z,25.60
2022-08-26T02:11:07.385Z,25.62
2022-08-26T02:12:12.157Z,25.61
2022-08-26T02:13:14.010Z,25.54
2022-08-26T02:14:21.212Z,25.61
2022-08-26T02:15:23.095Z,25.61
2022-08-26T02:16:27.052Z,25.57
2022-08-26T02:17:42.370Z,25.55
2022-08-26T02:18:46.991Z,25.61
2022-08-26T02:19:50.686Z,25.60
2022-08-26T02:20:54.229Z,25.49
2022-08-26T02:21:58.943Z,25.61
2022-08-26T02:23:01.188Z,25.60
2022-08-26T02:24:12.412Z,25.62
2022-08-26T02:25:24.136Z,25.62
2022-08-26T02:26:26.924Z,25.61
2022-08-26T02:27:32.975Z,25.61
2022-08-26T02:29:09.870Z,25.47
2022-08-26T02:30:18.465Z,25.60
2022-08-26T02:31:20.274Z,25.58
2022-08-26T02:32:22.675Z,25.55
2022-08-26T02:33:25.053Z,25.54
2022-08-26T02:34:31.223Z,25.39
2022-08-26T02:35:35.557Z,25.42
2022-08-26T02:36:37.922Z,25.45
2022-08-26T02:37:42.017Z,25.44
2022-08-26T02:38:43.762Z,25.40
2022-08-26T02:39:48.103Z,25.35
2022-08-26T02:40:49.939Z,25.30
2022-08-26T02:41:52.861Z,25.29
2022-08-26T02:42:55.947Z,25.26
2022-08-26T02:43:59.219Z,25.22
2022-08-26T02:45:01.071Z,25.26
2022-08-26T02:46:02.860Z,25.20
2022-08-26T02:47:05.022Z,25.25
2022-08-26T02:48:14.751Z,25.24
2022-08-26T02:49:17.206Z,25.22
2022-08-26T02:50:19.816Z,25.20
2022-08-26T02:51:21.584Z,25.20
2022-08-26T02:52:23.913Z,25.20
2022-08-26T02:53:25.749Z,25.05
2022-08-26T02:54:27.961Z,25.20
2022-08-26T02:55:29.723Z,25.18
2022-08-26T02:56:33.485Z,25.09
2022-08-26T02:57:37.557Z,25.16
2022-08-26T02:58:39.583Z,25.18
2022-08-26T02:59:41.729Z,25.19
2022-08-26T03:00:53.545Z,25.12
2022-08-26T03:01:56.122Z,25.18
2022-08-26T03:02:59.168Z,25.14
2022-08-26T03:04:03.684Z,25.15
2022-08-26T03:05:06.560Z,25.14
2022-08-26T03:06:08.319Z,25.14
2022-08-26T03:07:10.361Z,25.04
2022-08-26T03:08:12.102Z,25.15
2022-08-26T03:09:18.861Z,25.06
2022-08-26T03:10:22.394Z,25.17
2022-08-26T03:11:24.809Z,25.17
2022-08-26T03:12:27.512Z,25.18
2022-08-26T03:13:29.777Z,25.19
2022-08-26T03:14:31.670Z,25.20
2022-08-26T03:15:33.522Z,25.15
2022-08-26T03:16:36.472Z,25.08
2022-08-26T03:17:38.990Z,25.12
2022-08-26T03:18:41.979Z,25.00
2022-08-26T03:19:43.763Z,25.08
2022-08-26T03:20:46.628Z,25.06
2022-08-26T03:21:48.624Z,25.06
2022-08-26T03:22:53.405Z,25.00
2022-08-26T03:23:58.752Z,25.00
2022-08-26T03:25:00.589Z,24.97
2022-08-26T03:26:02.957Z,24.90
2022-08-26T03:27:05.776Z,24.91
2022-08-26T03:28:09.682Z,24.90
2022-08-26T03:29:30.383Z,24.90
2022-08-26T03:30:45.328Z,24.82
2022-08-26T03:31:47.936Z,24.81
2022-08-26T03:32:49.750Z,24.80
2022-08-26T03:33:51.879Z,24.75
2022-08-26T03:34:54.122Z,24.70
2022-08-26T03:35:55.859Z,24.68
2022-08-26T03:36:59.020Z,24.73
2022-08-26T03:38:01.937Z,24.69
2022-08-26T03:39:03.886Z,24.67
2022-08-26T03:40:10.075Z,24.75
2022-08-26T03:41:12.401Z,24.65
2022-08-26T03:42:15.159Z,24.74
2022-08-26T03:43:17.807Z,24.74
2022-08-26T03:44:19.855Z,24.72
2022-08-26T03:45:22.012Z,24.70
2022-08-26T03:46:23.805Z,24.61
2022-08-26T03:47:28.613Z,24.69
2022-08-26T03:48:30.367Z,24.66
2022-08-26T03:49:32.393Z,24.62
2022-08-26T03:50:35.816Z,24.57
2022-08-26T03:51:39.031Z,24.48
2022-08-26T03:52:43.886Z,24.53
2022-08-26T03:53:47.851Z,24.42
2022-08-26T03:54:50.114Z,24.48
2022-08-26T03:55:52.178Z,24.47
2022-08-26T03:56:54.095Z,24.46
2022-08-26T03:57:55.954Z,24.45
2022-08-26T03:58:57.676Z,24.44
2022-08-26T04:00:00.294Z,24.44
2022-08-26T04:01:02.043Z,24.43
2022-08-26T04:02:08.458Z,24.47
2022-08-26T04:03:33.443Z,24.41
2022-08-26T04:04:35.524Z,24.44
2022-08-26T04:05:38.148Z,24.36
2022-08-26T04:06:43.430Z,24.49
2022-08-26T04:07:47.351Z,24.46
2022-08-26T04:08:50.360Z,24.53
2022-08-26T04:09:57.163Z,24.54
2022-08-26T04:10:59.244Z,24.56
2022-08-26T04:12:01.198Z,24.57
2022-08-26T04:13:05.206Z,24.58
2022-08-26T04:14:14.368Z,24.57
2022-08-26T04:15:20.021Z,24.57
2022-08-26T04:16:22.272Z,24.55
2022-08-26T04:17:26.334Z,24.52
2022-08-26T04:18:32.656Z,24.45
2022-08-26T04:19:38.987Z,24.58
2022-08-26T04:20:40.683Z,24.61
2022-08-26T04:21:43.491Z,24.61
2022-08-26T04:22:46.064Z,24.59
2022-08-26T04:23:48.577Z,24.51
2022-08-26T04:24:50.346Z,24.62
2022-08-26T04:25:52.190Z,24.62
2022-08-26T04:26:54.926Z,24.62
2022-08-26T04:27:56.975Z,24.48
2022-08-26T04:28:59.068Z,24.66
2022-08-26T04:30:01.286Z,24.67
2022-08-26T04:31:03.439Z,24.67
2022-08-26T04:32:05.253Z,24.65
2022-08-26T04:33:08.022Z,24.70
2022-08-26T04:34:15.770Z,24.72
2022-08-26T04:35:17.945Z,24.72
2022-08-26T04:36:20.335Z,24.74
2022-08-26T04:37:22.223Z,24.66
2022-08-26T04:38:26.587Z,24.74
2022-08-26T04:39:28.590Z,24.70
2022-08-26T04:40:30.761Z,24.70
2022-08-26T04:41:33.737Z,24.73
2022-08-26T04:42:36.092Z,24.71
2022-08-26T04:43:38.372Z,24.74
2022-08-26T04:44:40.670Z,24.70
2022-08-26T04:45:43.758Z,24.75
2022-08-26T04:46:45.530Z,24.72
2022-08-26T04:47:47.473Z,24.71
2022-08-26T04:48:52.458Z,24.68
2022-08-26T04:49:57.753Z,24.69
2022-08-26T04:51:00.129Z,24.42
2022-08-26T04:52:01.950Z,24.69
2022-08-26T04:53:04.611Z,24.78
2022-08-26T04:54:08.960Z,24.77
2022-08-26T04:55:10.690Z,24.78
2022-08-26T04:56:13.285Z,24.77
2022-08-26T04:57:15.156Z,24.81
2022-08-26T04:58:19.313Z,24.85
2022-08-26T04:59:21.641Z,24.82
2022-08-26T05:00:23.768Z,24.82
2022-08-26T05:01:30.007Z,24.84
2022-08-26T05:02:31.745Z,24.85
2022-08-26T05:03:36.456Z,24.86
2022-08-26T05:04:38.230Z,24.84
2022-08-26T05:05:45.865Z,24.88
2022-08-26T05:06:48.436Z,24.90
2022-08-26T05:07:50.181Z,24.89
2022-08-26T05:08:52.115Z,24.87
2022-08-26T05:09:54.811Z,24.89
2022-08-26T05:10:56.768Z,24.88
2022-08-26T05:11:58.469Z,24.86
2022-08-26T05:13:00.783Z,24.97
2022-08-26T05:14:02.581Z,24.93
2022-08-26T05:15:04.713Z,24.90
2022-08-26T05:16:12.489Z,25.04
2022-08-26T05:17:15.081Z,25.06
2022-08-26T05:18:20.570Z,25.02
2022-08-26T05:19:23.801Z,25.06
2022-08-26T05:20:26.319Z,25.07
2022-08-26T05:21:29.216Z,25.08
2022-08-26T05:22:31.014Z,25.10
2022-08-26T05:23:35.771Z,25.12
2022-08-26T05:24:37.459Z,24.89
2022-08-26T05:25:42.138Z,25.13
2022-08-26T05:26:44.961Z,25.13
2022-08-26T05:27:47.084Z,25.09
2022-08-26T05:28:51.673Z,25.12
2022-08-26T05:29:57.641Z,25.04
2022-08-26T05:30:59.394Z,25.11
2022-08-26T05:32:01.846Z,25.10
2022-08-26T05:33:05.250Z,25.11
2022-08-26T05:34:08.583Z,25.06
2022-08-26T05:35:11.005Z,25.15
2022-08-26T05:36:16.225Z,25.10
2022-08-26T05:37:18.111Z,25.18
2022-08-26T05:38:21.763Z,25.18
2022-08-26T05:39:23.603Z,25.23
2022-08-26T05:40:25.710Z,25.20
2022-08-26T05:41:36.637Z,25.32
2022-08-26T05:42:40.420Z,25.23
2022-08-26T05:43:42.217Z,25.35
2022-08-26T05:44:53.790Z,25.42
2022-08-26T05:46:06.637Z,25.44
2022-08-26T05:47:08.495Z,25.48
2022-08-26T05:48:10.861Z,25.53
2022-08-26T05:49:15.919Z,25.62
2022-08-26T05:50:21.977Z,25.67
2022-08-26T05:51:26.358Z,25.71
2022-08-26T05:52:28.406Z,25.76
2022-08-26T05:53:30.158Z,25.78
2022-08-26T05:54:34.055Z,25.62
2022-08-26T05:55:47.031Z,25.82
2022-08-26T05:56:49.314Z,25.76
2022-08-26T05:57:51.049Z,25.81
2022-08-26T05:58:53.239Z,25.81
2022-08-26T05:59:54.990Z,25.90
2022-08-26T06:01:00.003Z,25.93
2022-08-26T06:02:02.388Z,25.95
2022-08-26T06:03:04.712Z,25.94
2022-08-26T06:04:08.049Z,25.98
2022-08-26T06:05:09.826Z,25.99
2022-08-26T06:06:14.573Z,26.04
2022-08-26T06:07:17.074Z,26.09
2022-08-26T06:08:21.332Z,26.12
2022-08-26T06:09:23.735Z,26.13
2022-08-26T06:10:32.533Z,26.16
2022-08-26T06:11:34.998Z,26.15
2022-08-26T06:12:37.571Z,26.14
2022-08-26T06:13:39.533Z,26.19
2022-08-26T06:14:41.660Z,26.19
2022-08-26T06:15:46.056Z,26.20
2022-08-26T06:16:48.017Z,26.22
2022-08-26T06:17:49.889Z,26.20
2022-08-26T06:18:53.250Z,26.14
2022-08-26T06:19:54.953Z,26.15
2022-08-26T06:20:57.943Z,26.15
2022-08-26T06:22:23.307Z,26.27
2022-08-26T06:23:46.264Z,26.29
2022-08-26T06:25:06.498Z,26.30
2022-08-26T06:26:11.008Z,26.29
2022-08-26T06:27:15.241Z,26.32
2022-08-26T06:28:17.636Z,26.34
2022-08-26T06:29:24.710Z,26.38
2022-08-26T06:30:26.773Z,26.40
2022-08-26T06:31:29.849Z,26.42
2022-08-26T06:32:31.794Z,26.44
2022-08-26T06:33:33.934Z,26.43
2022-08-26T06:34:36.103Z,26.46
2022-08-26T06:35:39.943Z,26.38
2022-08-26T06:36:45.031Z,26.49
2022-08-26T06:37:48.000Z,26.52
2022-08-26T06:38:50.742Z,26.40
2022-08-26T06:39:52.531Z,26.43
2022-08-26T06:40:55.546Z,26.50
2022-08-26T06:41:57.290Z,26.52
2022-08-26T06:42:58.995Z,26.61
2022-08-26T06:44:03.074Z,26.65
2022-08-26T06:45:05.852Z,26.67
2022-08-26T06:46:11.866Z,26.69
2022-08-26T06:47:13.751Z,26.73
2022-08-26T06:48:18.038Z,26.80
2022-08-26T06:49:26.827Z,26.79
2022-08-26T06:50:29.358Z,26.85
2022-08-26T06:51:34.581Z,26.77
2022-08-26T06:52:36.464Z,26.95
2022-08-26T06:53:39.428Z,26.97
2022-08-26T06:54:44.222Z,27.02
2022-08-26T06:55:47.381Z,27.13
2022-08-26T06:56:53.953Z,27.20
2022-08-26T06:57:56.996Z,27.24
2022-08-26T06:58:58.913Z,27.28
2022-08-26T07:00:00.785Z,27.30
2022-08-26T07:01:11.421Z,27.22
2022-08-26T07:02:13.771Z,27.29
2022-08-26T07:03:15.676Z,27.39
2022-08-26T07:04:21.931Z,27.32
2022-08-26T07:05:25.803Z,27.40
2022-08-26T07:06:28.442Z,27.50
2022-08-26T07:07:30.728Z,27.57
2022-08-26T07:08:32.738Z,27.60
2022-08-26T07:09:37.494Z,27.70
2022-08-26T07:10:39.368Z,27.76
2022-08-26T07:11:41.601Z,27.84
2022-08-26T07:12:43.425Z,27.89
2022-08-26T07:13:50.583Z,27.95
2022-08-26T07:14:53.795Z,27.98
2022-08-26T07:15:58.128Z,28.01
2022-08-26T07:17:11.089Z,28.01
2022-08-26T07:18:17.257Z,28.06
2022-08-26T07:19:30.146Z,28.17
2022-08-26T07:20:33.055Z,28.10
2022-08-26T07:21:35.014Z,28.19
2022-08-26T07:22:37.750Z,28.22
2022-08-26T07:23:40.760Z,28.18
2022-08-26T07:24:42.668Z,28.22
2022-08-26T07:25:45.681Z,28.28
2022-08-26T07:26:48.055Z,28.29
2022-08-26T07:27:54.172Z,28.30
2022-08-26T07:28:57.862Z,28.35
2022-08-26T07:30:02.127Z,28.44
2022-08-26T07:31:12.407Z,28.59
2022-08-26T07:32:16.184Z,28.83
2022-08-26T07:33:18.271Z,28.96
2022-08-26T07:34:20.429Z,28.99
2022-08-26T07:35:22.332Z,29.04
2022-08-26T07:36:25.077Z,29.00
2022-08-26T07:37:26.803Z,29.11
2022-08-26T07:38:33.983Z,29.20
2022-08-26T07:39:36.329Z,29.23
2022-08-26T07:40:41.127Z,29.21
2022-08-26T07:41:43.197Z,29.17
2022-08-26T07:42:44.984Z,29.18
2022-08-26T07:43:47.375Z,29.14
2022-08-26T07:44:49.299Z,29.32
2022-08-26T07:45:51.061Z,29.35
2022-08-26T07:46:53.554Z,29.40
2022-08-26T07:47:56.183Z,29.48
2022-08-26T07:48:58.925Z,29.48
2022-08-26T07:50:00.743Z,29.56
2022-08-26T07:51:03.618Z,29.60
2022-08-26T07:52:06.331Z,29.62
2022-08-26T07:53:08.155Z,29.61
2022-08-26T07:54:12.464Z,29.61
2022-08-26T07:55:14.853Z,29.64
2022-08-26T07:56:17.733Z,29.70
2022-08-26T07:57:19.487Z,29.78
2022-08-26T07:58:22.664Z,29.85
2022-08-26T07:59:25.068Z,29.93
2022-08-26T08:00:28.052Z,30.01
2022-08-26T08:01:31.590Z,30.06
2022-08-26T08:02:35.017Z,30.05
2022-08-26T08:03:36.882Z,30.13
2022-08-26T08:04:38.668Z,30.13
2022-08-26T08:05:41.445Z,30.17
2022-08-26T08:06:44.683Z,30.13
2022-08-26T08:07:46.695Z,30.26
2022-08-26T08:08:51.760Z,30.26
2022-08-26T08:09:53.582Z,30.31
2022-08-26T08:10:56.416Z,30.35
2022-08-26T08:11:58.123Z,30.39
2022-08-26T08:13:00.425Z,30.38
2022-08-26T08:14:02.881Z,30.41
2022-08-26T08:15:13.624Z,30.40
2022-08-26T08:16:15.488Z,30.55
2022-08-26T08:17:17.196Z,30.58
2022-08-26T08:18:21.046Z,30.62
2022-08-26T08:19:28.414Z,30.66
2022-08-26T08:20:38.720Z,30.84
2022-08-26T08:21:47.100Z,30.95
2022-08-26T08:22:50.682Z,31.08
2022-08-26T08:23:55.495Z,31.17
2022-08-26T08:24:57.261Z,31.25
2022-08-26T08:26:10.466Z,31.32
2022-08-26T08:27:12.546Z,31.33
2022-08-26T08:28:15.941Z,31.36
2022-08-26T08:29:17.657Z,31.38
2022-08-26T08:30:22.766Z,31.45
2022-08-26T08:31:57.090Z,31.36
2022-08-26T08:32:52.875Z,31.35
2022-08-26T08:33:55.287Z,31.34
2022-08-26T08:34:57.665Z,31.35
2022-08-26T08:36:00.488Z,31.41
2022-08-26T08:37:02.603Z,31.45
2022-08-26T08:38:05.410Z,31.45
2022-08-26T08:39:08.905Z,31.54
2022-08-26T08:40:18.402Z,31.60
2022-08-26T08:42:06.106Z,31.56
2022-08-26T08:43:16.495Z,31.47
2022-08-26T08:44:31.230Z,31.39
2022-08-26T08:45:57.878Z,31.40
2022-08-26T08:47:06.241Z,31.25
2022-08-26T08:48:27.652Z,31.37
2022-08-26T08:49:31.931Z,31.36
2022-08-26T08:50:41.844Z,31.36
2022-08-26T08:51:54.871Z,31.24
2022-08-26T08:53:23.268Z,31.18
2022-08-26T08:54:26.947Z,31.11
2022-08-26T08:55:41.185Z,31.15
2022-08-26T08:56:59.724Z,31.22
2022-08-26T08:58:12.198Z,31.13
2022-08-26T08:59:28.096Z,31.10
2022-08-26T09:00:42.666Z,31.11
2022-08-26T09:02:08.987Z,31.14
2022-08-26T09:03:21.854Z,31.15
2022-08-26T09:04:44.980Z,31.18
2022-08-26T09:05:51.491Z,31.19
2022-08-26T09:06:59.110Z,31.24
2022-08-26T09:08:06.814Z,31.15
2022-08-26T09:09:30.418Z,31.30
2022-08-26T09:10:34.711Z,31.28
2022-08-26T09:11:36.941Z,31.23
2022-08-26T09:12:38.742Z,31.17
2022-08-26T09:13:48.261Z,31.05
2022-08-26T09:14:52.563Z,30.93
2022-08-26T09:16:08.451Z,30.97
2022-08-26T09:17:27.398Z,30.90
2022-08-26T09:18:41.919Z,30.86
2022-08-26T09:20:03.367Z,30.83
2022-08-26T09:21:08.213Z,30.81
2022-08-26T09:22:10.062Z,30.76
2022-08-26T09:23:11.993Z,30.71
2022-08-26T09:24:13.792Z,30.68
2022-08-26T09:25:16.174Z,30.70
2022-08-26T09:26:29.255Z,30.81
2022-08-26T09:27:42.875Z,30.75
2022-08-26T09:28:55.539Z,30.72
2022-08-26T09:29:59.539Z,30.70
2022-08-26T09:31:14.172Z,30.72
2022-08-26T09:32:35.352Z,30.79
2022-08-26T09:33:37.219Z,30.84
2022-08-26T09:34:57.446Z,30.91
2022-08-26T09:36:18.323Z,31.01
2022-08-26T09:37:43.262Z,31.12
2022-08-26T09:38:46.174Z,31.13
2022-08-26T09:39:47.943Z,31.18
2022-08-26T09:41:26.756Z,31.20
2022-08-26T09:42:28.456Z,31.28
2022-08-26T09:43:30.507Z,31.31
2022-08-26T09:44:33.386Z,31.33
2022-08-26T09:45:40.594Z,31.33
2022-08-26T09:47:05.452Z,31.47
2022-08-26T09:48:08.959Z,31.51
2022-08-26T09:49:36.096Z,31.59
2022-08-26T09:50:55.108Z,31.72
2022-08-26T09:52:23.699Z,31.84
2022-08-26T09:53:30.874Z,31.90
2022-08-26T09:54:33.564Z,31.91
2022-08-26T09:55:36.469Z,31.99
2022-08-26T09:56:39.376Z,32.04
2022-08-26T09:57:55.674Z,31.98
2022-08-26T09:59:01.120Z,32.08
2022-08-26T10:00:24.365Z,31.96
2022-08-26T10:01:38.428Z,32.00
2022-08-26T10:02:47.702Z,31.98
2022-08-26T10:03:51.984Z,31.98
2022-08-26T10:04:56.910Z,31.84
2022-08-26T10:06:00.504Z,31.86
2022-08-26T10:07:05.849Z,31.80
2022-08-26T10:08:25.146Z,31.84
2022-08-26T10:09:29.812Z,31.82
2022-08-26T10:10:35.604Z,31.68
2022-08-26T10:11:43.246Z,31.74
2022-08-26T10:12:54.003Z,31.69
2022-08-26T10:14:01.690Z,31.60
2022-08-26T10:15:09.690Z,31.55
2022-08-26T10:16:19.065Z,31.54
2022-08-26T10:17:39.084Z,31.51
2022-08-26T10:18:46.531Z,31.52
2022-08-26T10:20:23.371Z,31.46
2022-08-26T10:21:37.672Z,31.39
2022-08-26T10:23:04.105Z,31.39
2022-08-26T10:24:11.377Z,31.37
2022-08-26T10:25:23.288Z,31.31
2022-08-26T10:26:45.235Z,31.40
2022-08-26T10:28:12.152Z,31.42
2022-08-26T10:29:17.959Z,31.46
2022-08-26T10:30:23.842Z,31.41
2022-08-26T10:31:40.152Z,31.28
2022-08-26T10:32:46.949Z,31.21
2022-08-26T10:33:48.778Z,31.19
2022-08-26T10:34:51.581Z,31.12
2022-08-26T10:35:57.777Z,31.10
2022-08-26T10:37:13.895Z,31.11
2022-08-26T10:38:21.938Z,31.14
2022-08-26T10:39:23.647Z,31.25
2022-08-26T10:40:37.735Z,31.27
2022-08-26T10:41:43.496Z,31.34
2022-08-26T10:42:56.848Z,31.45
2022-08-26T10:44:01.655Z,31.51
2022-08-26T10:45:11.841Z,31.61
2022-08-26T10:46:22.556Z,31.70
2022-08-26T10:47:38.336Z,31.66
2022-08-26T10:49:00.776Z,31.82
2022-08-26T10:50:05.866Z,31.82
2022-08-26T10:51:11.580Z,31.91
2022-08-26T10:52:22.335Z,31.94
2022-08-26T10:53:32.980Z,32.03
2022-08-26T10:54:46.432Z,32.13
2022-08-26T10:56:00.503Z,32.16
2022-08-26T10:57:50.561Z,32.16
2022-08-26T10:58:58.248Z,32.22
2022-08-26T11:00:29.832Z,32.23
2022-08-26T11:01:44.340Z,32.12
2022-08-26T11:02:52.187Z,32.17
2022-08-26T11:04:00.515Z,32.20
2022-08-26T11:05:15.956Z,32.20
2022-08-26T11:06:18.885Z,32.33
2022-08-26T11:07:44.442Z,32.24
2022-08-26T11:09:08.721Z,32.13
2022-08-26T11:10:16.650Z,32.04
2022-08-26T11:11:39.716Z,31.91
2022-08-26T11:12:41.958Z,31.94
2022-08-26T11:14:05.478Z,31.98
2022-08-26T11:15:14.809Z,32.05
2022-08-26T11:16:43.593Z,32.15
2022-08-26T11:17:45.741Z,32.25
2022-08-26T11:18:48.884Z,32.34
2022-08-26T11:20:02.261Z,32.50
2022-08-26T11:21:44.523Z,32.49
2022-08-26T11:22:47.836Z,32.42
2022-08-26T11:23:50.476Z,32.39
2022-08-26T11:24:52.568Z,32.28
2022-08-26T11:26:09.796Z,32.28
2022-08-26T11:27:35.489Z,32.23
2022-08-26T11:28:49.277Z,32.40
2022-08-26T11:30:10.854Z,32.52
2022-08-26T11:31:38.431Z,32.59
2022-08-26T11:32:40.505Z,32.69
2022-08-26T11:33:48.476Z,32.74
2022-08-26T11:35:00.585Z,32.81
2022-08-26T11:36:12.386Z,32.77
2022-08-26T11:37:17.815Z,32.65
2022-08-26T11:38:31.508Z,32.78
2022-08-26T11:39:57.190Z,32.77
2022-08-26T11:41:20.987Z,32.73
2022-08-26T11:42:32.118Z,32.75
2022-08-26T11:43:34.150Z,32.82
2022-08-26T11:44:40.084Z,32.87
2022-08-26T11:46:06.901Z,32.95
2022-08-26T11:47:14.892Z,33.00
2022-08-26T11:48:18.405Z,33.00
2022-08-26T11:49:20.223Z,32.85
2022-08-26T11:50:26.527Z,32.80
2022-08-26T11:51:28.524Z,32.92
2022-08-26T11:52:30.738Z,33.06
2022-08-26T11:53:39.701Z,33.17
2022-08-26T11:54:58.898Z,33.18
2022-08-26T11:56:06.860Z,33.32
2022-08-26T11:57:13.625Z,33.37
2022-08-26T11:58:16.128Z,33.46
2022-08-26T11:59:24.144Z,33.44
2022-08-26T12:00:34.482Z,33.48
2022-08-26T12:01:40.047Z,33.43
2022-08-26T12:02:42.473Z,33.54
2022-08-26T12:03:44.431Z,33.56
2022-08-26T12:04:49.632Z,33.61
2022-08-26T12:05:53.327Z,33.62
2022-08-26T12:06:57.510Z,33.69
2022-08-26T12:08:11.925Z,33.74
2022-08-26T12:09:29.187Z,33.67
2022-08-26T12:10:34.192Z,33.65
2022-08-26T12:11:38.644Z,33.69
2022-08-26T12:12:42.619Z,33.75
2022-08-26T12:13:57.796Z,33.65
2022-08-26T12:15:22.057Z,33.45
2022-08-26T12:16:26.630Z,33.42
2022-08-26T12:17:28.558Z,33.42
2022-08-26T12:18:37.173Z,33.30
2022-08-26T12:19:39.161Z,33.42
2022-08-26T12:20:56.429Z,33.53
2022-08-26T12:22:04.495Z,33.62
2022-08-26T12:23:06.535Z,33.73
2022-08-26T12:24:08.556Z,33.52
2022-08-26T12:25:12.548Z,33.25
2022-08-26T12:26:29.989Z,33.38
2022-08-26T12:27:42.076Z,33.46
2022-08-26T12:29:12.587Z,33.53
2022-08-26T12:30:28.434Z,33.58
2022-08-26T12:31:37.786Z,33.59
2022-08-26T12:32:57.697Z,33.51
2022-08-26T12:34:02.650Z,33.38
2022-08-26T12:36:18.159Z,33.47
2022-08-26T12:37:21.207Z,33.35
2022-08-26T12:38:24.523Z,33.32
2022-08-26T12:39:36.390Z,33.30
2022-08-26T12:40:44.833Z,33.26
2022-08-26T12:42:01.928Z,33.31
2022-08-26T12:43:06.134Z,33.27
2022-08-26T12:44:08.402Z,33.06
2022-08-26T12:45:10.398Z,33.17
2022-08-26T12:46:16.754Z,33.17
2022-08-26T12:47:42.574Z,33.22
2022-08-26T12:48:49.754Z,33.24
2022-08-26T12:50:08.941Z,33.18
2022-08-26T12:51:27.207Z,33.12
2022-08-26T12:52:31.740Z,32.93
2022-08-26T12:53:35.966Z,32.51
2022-08-26T12:54:57.130Z,32.16
2022-08-26T12:56:05.464Z,31.70
2022-08-26T12:57:12.180Z,31.68
2022-08-26T12:58:24.048Z,31.77
2022-08-26T12:59:26.850Z,31.83
2022-08-26T13:00:34.869Z,31.97
2022-08-26T13:01:43.130Z,31.99
2022-08-26T13:02:45.097Z,32.04
2022-08-26T13:03:47.570Z,32.13
2022-08-26T13:05:00.685Z,32.20
2022-08-26T13:06:30.161Z,32.14
2022-08-26T13:07:31.983Z,32.15
2022-08-26T13:08:33.969Z,32.15
2022-08-26T13:09:36.640Z,32.20
2022-08-26T13:10:41.557Z,31.91
2022-08-26T13:11:45.151Z,31.66
2022-08-26T13:12:47.843Z,31.42
2022-08-26T13:14:01.783Z,31.36
2022-08-26T13:15:05.486Z,31.46
2022-08-26T13:16:07.766Z,31.59
2022-08-26T13:17:09.707Z,31.61
2022-08-26T13:18:11.653Z,31.56
2022-08-26T13:19:16.954Z,31.67
2022-08-26T13:20:18.806Z,31.58
2022-08-26T13:21:32.033Z,31.78
2022-08-26T13:22:42.473Z,31.69
2022-08-26T13:23:44.822Z,31.88
2022-08-26T13:24:46.633Z,32.01
2022-08-26T13:25:48.524Z,31.99
2022-08-26T13:26:50.810Z,31.98
2022-08-26T13:27:52.714Z,31.87
2022-08-26T13:29:01.760Z,31.78
2022-08-26T13:30:04.754Z,31.70
2022-08-26T13:31:07.137Z,31.81
2022-08-26T13:32:09.617Z,31.77
2022-08-26T13:33:14.651Z,31.69
2022-08-26T13:34:19.690Z,31.88
2022-08-26T13:35:21.504Z,31.91
2022-08-26T13:36:23.293Z,31.92
2022-08-26T13:37:35.008Z,31.93
2022-08-26T13:38:37.547Z,31.98
2022-08-26T13:39:39.656Z,31.79
2022-08-26T13:40:44.762Z,31.82
2022-08-26T13:41:47.247Z,31.64
2022-08-26T13:42:50.085Z,31.74
2022-08-26T13:43:52.826Z,31.67
2022-08-26T13:44:58.255Z,31.78
2022-08-26T13:46:01.700Z,31.76
2022-08-26T13:47:03.582Z,31.71
2022-08-26T13:48:07.027Z,31.83
2022-08-26T13:49:09.413Z,31.87
2022-08-26T13:50:11.300Z,31.82
2022-08-26T13:51:13.930Z,31.80
2022-08-26T13:52:16.726Z,31.75
2022-08-26T13:53:19.008Z,31.77
2022-08-26T13:54:20.798Z,31.42
2022-08-26T13:55:23.127Z,31.25
2022-08-26T13:56:27.644Z,31.27
2022-08-26T13:57:30.574Z,31.38
2022-08-26T13:58:32.385Z,31.32
2022-08-26T13:59:34.265Z,31.26
2022-08-26T14:00:37.590Z,31.09
2022-08-26T14:01:40.258Z,31.08
2022-08-26T14:02:42.086Z,31.14
2022-08-26T14:03:44.043Z,31.14
2022-08-26T14:04:45.946Z,31.20
2022-08-26T14:05:47.923Z,31.16
2022-08-26T14:06:52.105Z,31.26
2022-08-26T14:07:54.958Z,31.38
2022-08-26T14:08:57.008Z,31.22
2022-08-26T14:09:58.901Z,31.15
2022-08-26T14:11:00.760Z,31.14
2022-08-26T14:12:02.937Z,31.27
2022-08-26T14:13:04.924Z,31.12
2022-08-26T14:14:09.686Z,31.14
2022-08-26T14:15:13.086Z,31.14